createdAt,value
2022-09-06T00:02:00.561Z,57.06
2022-09-06T00:04:27.599Z,57.37
2022-09-06T00:06:54.420Z,57.51
2022-09-06T00:09:21.440Z,57.10
2022-09-06T00:11:48.272Z,56.99
2022-09-06T00:14:15.203Z,57.29
2022-09-06T00:16:54.903Z,57.34
2022-09-06T00:19:21.883Z,57.07
2022-09-06T00:21:58.998Z,57.21
2022-09-06T00:24:26.541Z,57.57
2022-09-06T00:26:53.385Z,56.99
2022-09-06T00:29:20.416Z,57.33
2022-09-06T00:31:47.214Z,57.21
2022-09-06T00:34:14.157Z,57.51
2022-09-06T00:36:41.015Z,57.67
2022-09-06T00:39:07.890Z,58.17
2022-09-06T00:41:37.631Z,58.27
2022-09-06T00:44:04.563Z,57.71
2022-09-06T00:46:40.036Z,58.44
2022-09-06T00:49:12.520Z,58.47
2022-09-06T00:51:40.300Z,57.95
2022-09-06T00:54:09.057Z,57.91
2022-09-06T00:56:42.187Z,58.08
2022-09-06T00:59:09.374Z,58.63
2022-09-06T01:01:36.302Z,58.67
2022-09-06T01:04:04.027Z,58.19
2022-09-06T01:07:02.971Z,58.60
2022-09-06T01:09:50.472Z,58.67
2022-09-06T01:12:44.911Z,58.60
2022-09-06T01:15:34.620Z,58.99
2022-09-06T01:18:09.108Z,59.08
2022-09-06T01:20:54.083Z,58.94
2022-09-06T01:23:51.600Z,59.07
2022-09-06T01:27:16.938Z,58.57
2022-09-06T01:29:51.539Z,58.86
2022-09-06T01:32:34.320Z,59.12
2022-09-06T01:35:14.207Z,58.76
2022-09-06T01:37:41.640Z,58.45
2022-09-06T01:40:08.762Z,58.49
2022-09-06T01:42:36.721Z,58.59
2022-09-06T01:45:12.600Z,58.61
2022-09-06T01:47:45.289Z,58.05
2022-09-06T01:50:33.424Z,57.87
2022-09-06T01:53:22.692Z,57.79
2022-09-06T01:56:08.623Z,57.24
2022-09-06T01:59:09.103Z,57.73
2022-09-06T02:02:02.726Z,57.31
2022-09-06T02:04:38.502Z,58.13
2022-09-06T02:07:16.683Z,57.73
2022-09-06T02:09:48.797Z,57.82
2022-09-06T02:12:19.266Z,58.04
2022-09-06T02:14:58.160Z,58.04
2022-09-06T02:17:32.141Z,58.85
2022-09-06T02:20:21.172Z,58.77
2022-09-06T02:22:53.608Z,57.94
2022-09-06T02:25:32.000Z,57.94
2022-09-06T02:27:59.049Z,57.94
2022-09-06T02:30:26.095Z,58.32
2022-09-06T02:33:01.770Z,58.80
2022-09-06T02:35:28.970Z,58.67
2022-09-06T02:37:55.912Z,58.74
2022-09-06T02:40:23.161Z,58.25
2022-09-06T02:42:50.121Z,59.03
2022-09-06T02:45:17.087Z,59.38
2022-09-06T02:47:43.894Z,58.77
2022-09-06T02:50:31.061Z,58.40
2022-09-06T02:53:05.331Z,58.72
2022-09-06T02:55:33.209Z,59.41
2022-09-06T02:58:00.105Z,58.47
2022-09-06T03:00:27.904Z,59.06
2022-09-06T03:02:55.570Z,58.80
2022-09-06T03:05:23.599Z,59.19
2022-09-06T03:07:50.710Z,59.23
2022-09-06T03:10:17.885Z,59.09
2022-09-06T03:12:45.567Z,58.86
2022-09-06T03:15:35.697Z,59.28
2022-09-06T03:18:02.576Z,59.45
2022-09-06T03:20:31.031Z,59.57
2022-09-06T03:23:00.852Z,59.62
2022-09-06T03:25:27.783Z,59.64
2022-09-06T03:27:54.613Z,59.03
2022-09-06T03:30:21.518Z,58.71
2022-09-06T03:32:48.425Z,58.96
2022-09-06T03:35:15.235Z,58.74
2022-09-06T03:37:42.176Z,58.65
2022-09-06T03:40:09.830Z,58.46
2022-09-06T03:42:36.814Z,58.53
2022-09-06T03:45:03.913Z,58.24
2022-09-06T03:47:30.944Z,58.39
2022-09-06T03:49:57.803Z,58.02
2022-09-06T03:52:24.796Z,57.46
2022-09-06T03:54:51.597Z,57.98
2022-09-06T03:57:18.464Z,58.21
2022-09-06T03:59:45.289Z,58.04
2022-09-06T04:02:12.599Z,58.31
2022-09-06T04:04:49.712Z,57.87
2022-09-06T04:07:16.586Z,57.70
2022-09-06T04:09:52.292Z,57.76
2022-09-06T04:12:19.221Z,57.13
2022-09-06T04:14:45.997Z,57.65
2022-09-06T04:17:12.876Z,56.95
2022-09-06T04:19:39.778Z,56.76
2022-09-06T04:22:06.658Z,55.18
2022-09-06T04:24:45.391Z,54.12
2022-09-06T04:27:12.303Z,52.88
2022-09-06T04:29:39.109Z,51.92
2022-09-06T04:32:06.283Z,51.84
2022-09-06T04:34:33.137Z,51.12
2022-09-06T04:37:00.007Z,51.75
2022-09-06T04:39:26.851Z,52.21
2022-09-06T04:41:53.793Z,52.22
2022-09-06T04:44:20.605Z,51.36
2022-09-06T04:46:47.507Z,51.45
2022-09-06T04:49:14.280Z,52.38
2022-09-06T04:51:41.254Z,51.94
2022-09-06T04:54:08.167Z,51.78
2022-09-06T04:56:35.123Z,51.07
2022-09-06T04:59:01.931Z,51.11
2022-09-06T05:01:28.854Z,49.69
2022-09-06T05:03:57.099Z,49.46
2022-09-06T05:06:25.536Z,49.32
2022-09-06T05:08:52.413Z,50.61
2022-09-06T05:11:19.872Z,50.27
2022-09-06T05:13:47.324Z,51.47
2022-09-06T05:16:14.656Z,50.10
2022-09-06T05:18:42.648Z,49.11
2022-09-06T05:21:09.688Z,49.03
2022-09-06T05:23:36.492Z,49.25
2022-09-06T05:26:03.543Z,48.52
2022-09-06T05:28:30.544Z,48.51
2022-09-06T05:31:12.547Z,49.66
2022-09-06T05:33:40.028Z,50.54
2022-09-06T05:36:07.529Z,48.82
2022-09-06T05:38:34.495Z,47.98
2022-09-06T05:41:01.378Z,47.81
2022-09-06T05:43:28.191Z,47.72
2022-09-06T05:45:55.081Z,46.97
2022-09-06T05:48:22.071Z,45.84
2022-09-06T05:51:00.091Z,45.97
2022-09-06T05:53:27.079Z,46.31
2022-09-06T05:55:53.869Z,46.54
2022-09-06T05:58:20.720Z,45.62
2022-09-06T06:01:03.834Z,46.12
2022-09-06T06:03:30.776Z,44.45
2022-09-06T06:05:57.608Z,44.82
2022-09-06T06:08:24.592Z,46.48
2022-09-06T06:10:51.440Z,46.72
2022-09-06T06:13:18.261Z,46.61
2022-09-06T06:15:45.097Z,45.64
2022-09-06T06:18:11.864Z,44.99
2022-09-06T06:20:41.594Z,46.02
2022-09-06T06:23:08.481Z,45.30
2022-09-06T06:25:35.281Z,46.16
2022-09-06T06:28:02.201Z,46.19
2022-09-06T06:30:29.037Z,46.53
2022-09-06T06:32:55.828Z,47.38
2022-09-06T06:35:22.619Z,47.55
2022-09-06T06:37:49.584Z,47.56
2022-09-06T06:40:16.508Z,48.56
2022-09-06T06:42:43.368Z,49.00
2022-09-06T06:45:10.684Z,48.90
2022-09-06T06:47:37.526Z,49.16
2022-09-06T06:50:04.768Z,48.74
2022-09-06T06:52:31.566Z,49.12
2022-09-06T06:54:58.451Z,48.67
2022-09-06T06:57:25.273Z,48.59
2022-09-06T06:59:52.096Z,48.43
2022-09-06T07:02:19.007Z,48.38
2022-09-06T07:04:45.880Z,48.16
2022-09-06T07:12:46.633Z,47.70
2022-09-06T07:15:13.464Z,47.42
2022-09-06T07:17:40.443Z,47.92
2022-09-06T07:20:15.262Z,48.69
2022-09-06T07:22:42.787Z,49.59
2022-09-06T07:25:10.733Z,48.82
2022-09-06T07:27:52.848Z,49.16
2022-09-06T07:30:20.180Z,49.68
2022-09-06T07:32:49.941Z,49.26
2022-09-06T07:35:16.833Z,49.12
2022-09-06T07:37:43.791Z,49.57
2022-09-06T07:40:11.322Z,49.94
2022-09-06T07:42:38.309Z,51.17
2022-09-06T07:45:43.907Z,50.44
2022-09-06T07:48:49.245Z,50.81
2022-09-06T07:51:19.299Z,50.64
2022-09-06T07:54:06.959Z,50.04
2022-09-06T07:56:40.234Z,49.68
2022-09-06T07:59:07.039Z,49.67
2022-09-06T08:01:39.207Z,49.39
2022-09-06T08:04:13.827Z,49.38
2022-09-06T08:09:33.644Z,48.34
2022-09-06T08:12:00.490Z,49.32
2022-09-06T08:14:39.807Z,49.97
2022-09-06T08:17:06.725Z,49.59
2022-09-06T08:19:35.859Z,48.38
2022-09-06T08:22:03.119Z,48.95
2022-09-06T08:24:29.960Z,50.24
2022-09-06T08:26:56.851Z,49.01
2022-09-06T08:29:23.690Z,48.94
2022-09-06T08:31:50.639Z,48.47
2022-09-06T08:34:17.479Z,48.21
2022-09-06T08:36:44.573Z,46.31
2022-09-06T08:39:11.832Z,46.53
2022-09-06T08:41:57.716Z,44.72
2022-09-06T08:47:22.253Z,46.00
2022-09-06T08:49:53.936Z,46.64
2022-09-06T08:52:29.785Z,47.55
2022-09-06T08:55:30.359Z,46.91
2022-09-06T08:58:16.006Z,46.74
2022-09-06T09:00:50.240Z,47.39
2022-09-06T09:03:25.184Z,47.75
2022-09-06T09:05:53.643Z,48.21
2022-09-06T09:08:39.003Z,48.66
2022-09-06T09:11:32.740Z,47.41
2022-09-06T09:14:08.771Z,47.03
2022-09-06T09:16:36.129Z,46.92
2022-09-06T09:19:05.604Z,47.68
2022-09-06T09:21:39.884Z,46.96
2022-09-06T09:24:12.464Z,46.10
2022-09-06T09:26:51.175Z,46.21
2022-09-06T09:29:20.813Z,45.28
2022-09-06T09:31:54.771Z,45.58
2022-09-06T09:34:38.749Z,46.86
2022-09-06T09:40:26.784Z,45.46
2022-09-06T09:42:57.539Z,44.88
2022-09-06T09:45:30.464Z,45.43
2022-09-06T09:48:45.460Z,45.55
2022-09-06T09:51:27.489Z,44.65
2022-09-06T09:54:00.066Z,44.90
2022-09-06T09:56:36.764Z,44.66
2022-09-06T09:59:27.810Z,44.43
2022-09-06T10:02:00.559Z,45.35
2022-09-06T10:04:44.854Z,45.56
2022-09-06T10:07:19.759Z,46.43
2022-09-06T10:09:49.811Z,47.56
2022-09-06T10:12:27.384Z,47.75
2022-09-06T10:14:54.807Z,46.85
2022-09-06T10:17:30.274Z,47.49
2022-09-06T10:20:01.018Z,48.08
2022-09-06T10:22:31.625Z,47.62
2022-09-06T10:25:16.625Z,47.26
2022-09-06T10:28:11.196Z,47.28
2022-09-06T10:30:59.301Z,47.76
2022-09-06T10:33:50.793Z,46.78
2022-09-06T10:36:26.459Z,47.08
2022-09-06T10:39:03.489Z,46.63
2022-09-06T10:41:49.501Z,46.67
2022-09-06T10:44:19.299Z,46.27
2022-09-06T10:46:48.432Z,46.21
2022-09-06T10:49:19.835Z,46.41
2022-09-06T10:51:58.120Z,46.07
2022-09-06T10:54:25.282Z,45.60
2022-09-06T10:57:01.028Z,44.55
2022-09-06T11:02:18.786Z,43.59
2022-09-06T11:10:43.702Z,42.81
2022-09-06T11:13:25.036Z,43.47
2022-09-06T11:16:07.632Z,42.35
2022-09-06T11:19:11.528Z,42.34
2022-09-06T11:22:00.207Z,42.32
2022-09-06T11:24:41.911Z,42.39
2022-09-06T11:27:42.588Z,42.23
2022-09-06T11:30:15.881Z,42.32
2022-09-06T11:32:51.462Z,42.50
2022-09-06T11:35:27.283Z,42.89
2022-09-06T11:38:22.192Z,43.75
2022-09-06T11:41:01.602Z,43.81
2022-09-06T11:44:15.213Z,42.95
2022-09-06T11:46:42.260Z,43.19
2022-09-06T11:49:29.102Z,43.91
2022-09-06T11:51:56.316Z,44.46
2022-09-06T11:54:46.151Z,45.52
2022-09-06T11:57:20.874Z,44.45
2022-09-06T11:59:47.683Z,44.18
2022-09-06T12:02:40.550Z,43.70
2022-09-06T12:05:09.434Z,43.44
2022-09-06T12:08:23.222Z,43.87
2022-09-06T12:10:58.505Z,44.77
2022-09-06T12:13:39.727Z,43.57
2022-09-06T12:16:07.744Z,43.74
2022-09-06T12:18:46.851Z,43.81
2022-09-06T12:21:33.853Z,42.31
2022-09-06T12:24:02.255Z,40.85
2022-09-06T12:26:54.428Z,41.42
2022-09-06T12:29:28.351Z,40.61
2022-09-06T12:31:59.185Z,40.73
2022-09-06T12:34:30.344Z,40.27
2022-09-06T12:37:08.416Z,39.76
2022-09-06T12:39:35.712Z,40.41
2022-09-06T12:42:06.011Z,40.82
2022-09-06T12:44:38.848Z,39.72
2022-09-06T12:47:24.330Z,39.66
2022-09-06T12:50:26.100Z,39.44
2022-09-06T12:52:58.021Z,39.14
2022-09-06T12:55:31.969Z,39.75
2022-09-06T12:58:01.967Z,39.61
2022-09-06T13:00:53.255Z,40.46
2022-09-06T13:03:33.027Z,40.07
2022-09-06T13:06:03.880Z,38.28
2022-09-06T13:08:43.175Z,38.84
2022-09-06T13:11:13.457Z,39.09
2022-09-06T13:13:54.759Z,39.93
2022-09-06T13:16:51.040Z,39.83
2022-09-06T13:19:39.586Z,39.81
2022-09-06T13:22:09.022Z,39.05
2022-09-06T13:24:36.844Z,38.89
2022-09-06T13:27:31.475Z,39.34
2022-09-06T13:30:04.990Z,39.42
2022-09-06T13:32:32.528Z,38.95
2022-09-06T13:35:00.126Z,38.72
2022-09-06T13:37:29.930Z,39.04
2022-09-06T13:39:58.015Z,39.78
2022-09-06T13:42:31.275Z,39.87
2022-09-06T13:45:02.003Z,40.01
2022-09-06T13:47:30.122Z,39.30
2022-09-06T13:49:57.039Z,38.87
2022-09-06T13:52:23.979Z,39.84
2022-09-06T13:54:50.998Z,39.96
2022-09-06T13:57:23.546Z,40.71
2022-09-06T13:59:51.167Z,40.77
2022-09-06T14:02:18.238Z,40.89
2022-09-06T14:04:45.595Z,41.64
2022-09-06T14:07:12.597Z,41.83
2022-09-06T14:09:41.899Z,41.62
2022-09-06T14:12:08.811Z,41.64
2022-09-06T14:14:35.886Z,41.22
2022-09-06T14:17:02.804Z,40.75
2022-09-06T14:19:42.824Z,40.73
2022-09-06T14:22:09.773Z,40.04
2022-09-06T14:24:39.527Z,40.18
2022-09-06T14:27:06.694Z,39.76
2022-09-06T14:29:34.211Z,40.05
2022-09-06T14:32:01.873Z,40.36
2022-09-06T14:34:28.945Z,40.37
2022-09-06T14:36:55.944Z,40.65
2022-09-06T14:39:22.980Z,40.78
2022-09-06T14:41:50.031Z,40.96
2022-09-06T14:44:17.079Z,41.20
2022-09-06T14:46:44.110Z,40.93
2022-09-06T14:49:11.196Z,41.37
2022-09-06T14:51:38.470Z,41.93
2022-09-06T14:54:14.012Z,42.76
2022-09-06T14:57:06.304Z,42.38
2022-09-06T14:59:33.226Z,43.12
2022-09-06T15:02:00.263Z,43.07
2022-09-06T15:04:27.261Z,43.34
2022-09-06T15:06:56.349Z,43.97
2022-09-06T15:09:23.232Z,43.16
2022-09-06T15:11:51.317Z,43.94
2022-09-06T15:14:32.650Z,44.39
2022-09-06T15:19:42.616Z,43.82
2022-09-06T15:22:11.998Z,44.63
2022-09-06T15:24:39.469Z,45.05
2022-09-06T15:27:06.652Z,45.26
2022-09-06T15:29:33.788Z,45.03
2022-09-06T15:32:00.670Z,45.13
2022-09-06T15:34:27.769Z,44.74
2022-09-06T15:36:54.603Z,45.52
2022-09-06T15:39:21.502Z,45.59
2022-09-06T15:41:50.743Z,46.13
2022-09-06T15:44:21.508Z,46.12
2022-09-06T15:46:56.818Z,45.85
2022-09-06T15:49:29.545Z,45.46
2022-09-06T15:51:58.476Z,45.44
2022-09-06T15:54:25.628Z,45.59
2022-09-06T15:56:52.811Z,45.97
2022-09-06T15:59:19.676Z,45.81
2022-09-06T16:01:46.905Z,45.31
2022-09-06T16:04:16.869Z,45.49
2022-09-06T16:06:43.814Z,45.45
2022-09-06T16:09:24.128Z,45.05
2022-09-06T16:11:51.115Z,44.72
2022-09-06T16:14:20.887Z,44.35
2022-09-06T16:17:03.459Z,44.63
2022-09-06T16:19:30.633Z,44.88
2022-09-06T16:22:03.279Z,45.05
2022-09-06T16:24:30.321Z,44.86
2022-09-06T16:26:57.165Z,45.16
2022-09-06T16:29:24.531Z,45.15
2022-09-06T16:31:51.390Z,44.47
2022-09-06T16:34:18.282Z,43.97
2022-09-06T16:36:45.149Z,44.63
2022-09-06T16:39:12.178Z,44.98
2022-09-06T16:41:46.686Z,44.45
2022-09-06T16:44:17.168Z,45.00
2022-09-06T16:46:58.960Z,44.85
2022-09-06T16:49:26.000Z,45.26
2022-09-06T16:51:53.125Z,45.21
2022-09-06T16:54:20.661Z,46.00
2022-09-06T16:56:48.108Z,46.10
2022-09-06T16:59:15.300Z,46.04
2022-09-06T17:01:42.693Z,46.18
2022-09-06T17:04:10.551Z,45.79
2022-09-06T17:06:37.845Z,45.74
2022-09-06T17:09:05.320Z,46.19
2022-09-06T17:11:32.158Z,47.04
2022-09-06T17:14:02.352Z,46.60
2022-09-06T17:16:33.314Z,45.86
2022-09-06T17:19:01.656Z,46.66
2022-09-06T17:21:29.742Z,46.18
2022-09-06T17:23:57.110Z,46.52
2022-09-06T17:26:24.428Z,45.96
2022-09-06T17:28:51.661Z,47.00
2022-09-06T17:31:25.665Z,46.92
2022-09-06T17:33:53.766Z,47.21
2022-09-06T17:36:27.630Z,47.34
2022-09-06T17:39:11.109Z,47.71
2022-09-06T17:41:44.179Z,47.67
2022-09-06T17:44:17.888Z,47.11
2022-09-06T17:47:09.115Z,47.10
2022-09-06T17:49:35.215Z,47.66
2022-09-06T17:52:05.844Z,47.16
2022-09-06T17:54:33.809Z,47.28
2022-09-06T17:57:01.746Z,47.85
2022-09-06T17:59:34.262Z,47.58
2022-09-06T18:02:02.581Z,48.64
2022-09-06T18:04:29.615Z,48.28
2022-09-06T18:06:56.641Z,48.44
2022-09-06T18:09:23.617Z,48.42
2022-09-06T18:11:50.729Z,48.78
2022-09-06T18:14:18.970Z,48.70
2022-09-06T18:16:46.681Z,49.23
2022-09-06T18:19:13.711Z,48.65
2022-09-06T18:21:41.150Z,48.96
2022-09-06T18:24:09.657Z,49.88
2022-09-06T18:26:37.085Z,50.07
2022-09-06T18:29:05.068Z,51.12
2022-09-06T18:31:32.458Z,51.10
2022-09-06T18:33:59.383Z,51.68
2022-09-06T18:36:31.726Z,51.90
2022-09-06T18:39:03.866Z,51.75
2022-09-06T18:41:32.592Z,52.21
2022-09-06T18:44:00.220Z,52.11
2022-09-06T18:46:27.403Z,52.30
2022-09-06T18:48:54.543Z,52.82
2022-09-06T18:51:22.298Z,52.42
2022-09-06T18:53:49.275Z,52.13
2022-09-06T18:56:16.433Z,52.88
2022-09-06T18:58:43.372Z,52.96
2022-09-06T19:01:16.199Z,52.68
2022-09-06T19:03:43.877Z,53.31
2022-09-06T19:06:16.844Z,53.03
2022-09-06T19:08:44.845Z,52.88
2022-09-06T19:11:14.055Z,52.77
2022-09-06T19:13:41.724Z,52.71
2022-09-06T19:16:10.699Z,52.60
2022-09-06T19:18:39.886Z,52.36
2022-09-06T19:21:08.546Z,52.52
2022-09-06T19:23:38.388Z,52.86
2022-09-06T19:26:11.325Z,52.69
2022-09-06T19:28:38.495Z,53.08
2022-09-06T19:31:33.123Z,53.10
2022-09-06T19:34:00.852Z,53.62
2022-09-06T19:36:29.525Z,53.37
2022-09-06T19:39:05.830Z,53.13
2022-09-06T19:41:36.852Z,53.76
2022-09-06T19:44:04.517Z,53.71
2022-09-06T19:46:33.847Z,53.88
2022-09-06T19:49:01.006Z,54.19
2022-09-06T19:51:27.967Z,53.96
2022-09-06T19:53:56.877Z,54.34
2022-09-06T19:56:27.069Z,54.27
2022-09-06T19:58:55.968Z,54.10
2022-09-06T20:01:24.399Z,54.95
2022-09-06T20:03:51.947Z,54.48
2022-09-06T20:06:18.830Z,54.36
2022-09-06T20:08:50.280Z,54.89
2022-09-06T20:11:18.889Z,54.32
2022-09-06T20:13:46.010Z,54.25
2022-09-06T20:16:13.850Z,54.71
2022-09-06T20:18:41.189Z,54.86
2022-09-06T20:21:43.720Z,55.09
2022-09-06T20:24:23.111Z,55.24
2022-09-06T20:26:51.367Z,55.42
2022-09-06T20:29:18.385Z,55.42
2022-09-06T20:31:45.417Z,55.08
2022-09-06T20:34:17.380Z,55.65
2022-09-06T20:36:44.372Z,55.82
2022-09-06T20:39:11.295Z,55.45
2022-09-06T20:41:38.294Z,55.64
2022-09-06T20:44:05.125Z,55.45
2022-09-06T20:46:33.624Z,55.66
2022-09-06T20:49:01.196Z,55.38
2022-09-06T20:51:28.094Z,55.60
2022-09-06T20:53:57.656Z,55.49
2022-09-06T20:56:28.671Z,55.46
2022-09-06T20:58:58.743Z,55.40
2022-09-06T21:01:27.715Z,55.19
2022-09-06T21:03:57.406Z,55.13
2022-09-06T21:06:26.574Z,55.06
2022-09-06T21:08:53.949Z,54.91
2022-09-06T21:11:21.216Z,55.15
2022-09-06T21:13:51.640Z,55.19
2022-09-06T21:16:28.758Z,54.67
2022-09-06T21:18:58.282Z,54.43
2022-09-06T21:21:26.863Z,54.24
2022-09-06T21:23:54.253Z,54.72
2022-09-06T21:26:21.429Z,54.29
2022-09-06T21:28:49.211Z,54.04
2022-09-06T21:31:28.606Z,54.31
2022-09-06T21:33:57.711Z,54.31
2022-09-06T21:36:27.270Z,54.78
2022-09-06T21:38:55.733Z,54.52
2022-09-06T21:41:23.470Z,54.91
2022-09-06T21:43:55.211Z,54.60
2022-09-06T21:46:24.728Z,55.29
2022-09-06T21:48:54.521Z,54.52
2022-09-06T21:51:24.076Z,54.52
2022-09-06T21:53:52.010Z,54.76
2022-09-06T21:56:19.713Z,54.49
2022-09-06T21:58:50.981Z,54.50
2022-09-06T22:01:18.432Z,54.60
2022-09-06T22:03:54.336Z,54.92
2022-09-06T22:06:23.958Z,54.41
2022-09-06T22:08:52.131Z,54.45
2022-09-06T22:11:22.164Z,54.38
2022-09-06T22:13:50.098Z,54.44
2022-09-06T22:16:19.363Z,54.50
2022-09-06T22:18:47.788Z,54.78
2022-09-06T22:21:19.941Z,54.20
2022-09-06T22:23:58.530Z,54.78
2022-09-06T22:26:28.021Z,54.47
2022-09-06T22:28:57.059Z,55.20
2022-09-06T22:31:26.003Z,54.49
2022-09-06T22:33:53.409Z,55.00
2022-09-06T22:36:20.889Z,54.90
2022-09-06T22:38:47.757Z,55.58
2022-09-06T22:41:14.586Z,55.11
2022-09-06T22:43:41.408Z,55.45
2022-09-06T22:46:11.423Z,55.48
2022-09-06T22:48:38.667Z,55.19
2022-09-06T22:51:05.988Z,55.09
2022-09-06T22:53:34.359Z,55.06
2022-09-06T22:56:02.083Z,55.00
2022-09-06T22:58:29.226Z,55.15
2022-09-06T23:00:56.858Z,55.40
2022-09-06T23:03:23.766Z,55.31
2022-09-06T23:05:50.762Z,55.28
2022-09-06T23:08:17.639Z,55.31
2022-09-06T23:10:44.570Z,55.00
2022-09-06T23:13:11.597Z,55.46
2022-09-06T23:15:39.552Z,55.68
2022-09-06T23:18:07.077Z,55.38
2022-09-06T23:20:36.338Z,55.69
2022-09-06T23:23:04.385Z,55.78
2022-09-06T23:25:31.571Z,55.97
2022-09-06T23:28:01.517Z,56.48
2022-09-06T23:30:28.423Z,56.53
2022-09-06T23:32:55.235Z,56.19
2022-09-06T23:35:23.311Z,56.53
2022-09-06T23:37:51.047Z,56.33
2022-09-06T23:40:19.102Z,56.51
2022-09-06T23:42:46.419Z,56.62
2022-09-06T23:45:13.413Z,56.54
2022-09-06T23:47:43.319Z,56.70
2022-09-06T23:50:10.944Z,56.41
2022-09-06T23:52:37.817Z,56.26
2022-09-06T23:55:05.041Z,56.04
2022-09-06T23:57:31.889Z,56.74
2022-09-06T23:59:58.904Z,57.16
